sensor_id;sensor_type;location;lat;lon;timestamp;temperature;humidity
9881;DHT22;4979;51.014;6.678;2023-03-30T00:00:00;12.60;99.90
9881;DHT22;4979;51.014;6.678;2023-03-30T00:02:27;12.70;99.90
9881;DHT22;4979;51.014;6.678;2023-03-30T00:04:55;12.70;99.90
9881;DHT22;4979;51.014;6.678;2023-03-30T00:07:30;12.60;99.90
9881;DHT22;4979;51.014;6.678;2023-03-30T00:09:56;12.70;99.90
9881;DHT22;4979;51.014;6.678;2023-03-30T00:12:23;12.60;99.90
9881;DHT22;4979;51.014;6.678;2023-03-30T00:14:48;12.60;99.90
9881;DHT22;4979;51.014;6.678;2023-03-30T00:17:14;12.60;99.90
9881;DHT22;4979;51.014;6.678;2023-03-30T00:22:07;12.70;99.90
9881;DHT22;4979;51.014;6.678;2023-03-30T00:24:34;12.60;99.90
9881;DHT22;4979;51.014;6.678;2023-03-30T00:27:01;12.60;99.90
9881;DHT22;4979;51.014;6.678;2023-03-30T00:29:27;12.50;99.90
9881;DHT22;4979;51.014;6.678;2023-03-30T00:31:52;12.60;99.90
9881;DHT22;4979;51.014;6.678;2023-03-30T00:34:18;12.80;99.90
9881;DHT22;4979;51.014;6.678;2023-03-30T00:39:11;13.20;99.90
9881;DHT22;4979;51.014;6.678;2023-03-30T00:41:37;13.40;99.90
9881;DHT22;4979;51.014;6.678;2023-03-30T00:44:06;13.40;99.90
9881;DHT22;4979;51.014;6.678;2023-03-30T00:46:32;13.50;99.90
9881;DHT22;4979;51.014;6.678;2023-03-30T00:49:04;13.50;99.90
9881;DHT22;4979;51.014;6.678;2023-03-30T00:51:36;13.60;99.90
9881;DHT22;4979;51.014;6.678;2023-03-30T00:54:10;13.30;99.90
9881;DHT22;4979;51.014;6.678;2023-03-30T00:56:37;13.20;99.90
9881;DHT22;4979;51.014;6.678;2023-03-30T01:01:30;13.10;99.90
9881;DHT22;4979;51.014;6.678;2023-03-30T01:04:03;13.00;99.90
9881;DHT22;4979;51.014;6.678;2023-03-30T01:06:30;12.90;99.90
9881;DHT22;4979;51.014;6.678;2023-03-30T01:08:57;13.00;99.90
9881;DHT22;4979;51.014;6.678;2023-03-30T01:11:23;12.90;99.90
9881;DHT22;4979;51.014;6.678;2023-03-30T01:13:54;13.00;99.90
9881;DHT22;4979;51.014;6.678;2023-03-30T01:16:28;13.10;99.90
9881;DHT22;4979;51.014;6.678;2023-03-30T01:22:35;13.30;99.90
9881;DHT22;4979;51.014;6.678;2023-03-30T01:40:48;14.10;99.90
9881;DHT22;4979;51.014;6.678;2023-03-30T01:43:32;14.20;99.90
9881;DHT22;4979;51.014;6.678;2023-03-30T01:46:32;14.20;99.90
9881;DHT22;4979;51.014;6.678;2023-03-30T01:49:05;14.20;99.90
9881;DHT22;4979;51.014;6.678;2023-03-30T01:51:40;14.30;99.90
9881;DHT22;4979;51.014;6.678;2023-03-30T01:54:09;14.30;99.90
9881;DHT22;4979;51.014;6.678;2023-03-30T01:56:43;14.30;99.90
9881;DHT22;4979;51.014;6.678;2023-03-30T01:59:15;14.30;99.90
9881;DHT22;4979;51.014;6.678;2023-03-30T02:01:44;14.30;99.90
9881;DHT22;4979;51.014;6.678;2023-03-30T02:04:15;14.30;99.90
9881;DHT22;4979;51.014;6.678;2023-03-30T02:06:48;14.30;99.90
9881;DHT22;4979;51.014;6.678;2023-03-30T02:09:18;14.40;99.90
9881;DHT22;4979;51.014;6.678;2023-03-30T02:11:48;14.40;99.90
9881;DHT22;4979;51.014;6.678;2023-03-30T02:14:16;14.50;99.90
9881;DHT22;4979;51.014;6.678;2023-03-30T02:16:46;14.50;99.90
9881;DHT22;4979;51.014;6.678;2023-03-30T02:19:12;14.60;99.90
9881;DHT22;4979;51.014;6.678;2023-03-30T02:21:38;14.60;99.90
9881;DHT22;4979;51.014;6.678;2023-03-30T02:24:06;14.60;99.90
9881;DHT22;4979;51.014;6.678;2023-03-30T02:26:32;14.60;99.90
9881;DHT22;4979;51.014;6.678;2023-03-30T02:28:59;14.50;99.90
9881;DHT22;4979;51.014;6.678;2023-03-30T02:31:25;14.60;99.90
9881;DHT22;4979;51.014;6.678;2023-03-30T02:42:11;14.10;99.90
9881;DHT22;4979;51.014;6.678;2023-03-30T02:44:58;14.10;99.90
9881;DHT22;4979;51.014;6.678;2023-03-30T02:48:13;14.20;99.90
9881;DHT22;4979;51.014;6.678;2023-03-30T02:50:44;14.00;99.90
9881;DHT22;4979;51.014;6.678;2023-03-30T02:53:32;14.00;99.90
9881;DHT22;4979;51.014;6.678;2023-03-30T02:56:15;14.00;99.90
9881;DHT22;4979;51.014;6.678;2023-03-30T03:04:01;14.00;99.90
9881;DHT22;4979;51.014;6.678;2023-03-30T03:06:27;14.00;99.90
9881;DHT22;4979;51.014;6.678;2023-03-30T03:08:54;14.00;99.90
9881;DHT22;4979;51.014;6.678;2023-03-30T03:13:47;13.90;99.90
9881;DHT22;4979;51.014;6.678;2023-03-30T03:16:13;14.00;99.90
9881;DHT22;4979;51.014;6.678;2023-03-30T03:18:39;14.10;99.90
9881;DHT22;4979;51.014;6.678;2023-03-30T03:21:07;14.10;99.90
9881;DHT22;4979;51.014;6.678;2023-03-30T03:23:34;14.00;99.90
9881;DHT22;4979;51.014;6.678;2023-03-30T03:28:27;13.90;99.90
9881;DHT22;4979;51.014;6.678;2023-03-30T03:30:52;13.80;99.90
9881;DHT22;4979;51.014;6.678;2023-03-30T03:33:19;13.70;99.90
9881;DHT22;4979;51.014;6.678;2023-03-30T03:35:45;13.60;99.90
9881;DHT22;4979;51.014;6.678;2023-03-30T03:38:12;13.40;99.90
9881;DHT22;4979;51.014;6.678;2023-03-30T03:40:38;13.40;99.90
9881;DHT22;4979;51.014;6.678;2023-03-30T03:43:04;13.30;99.90
9881;DHT22;4979;51.014;6.678;2023-03-30T03:45:30;13.20;99.90
9881;DHT22;4979;51.014;6.678;2023-03-30T03:47:55;13.20;99.90
9881;DHT22;4979;51.014;6.678;2023-03-30T03:50:21;13.10;99.90
9881;DHT22;4979;51.014;6.678;2023-03-30T03:52:47;13.00;99.90
9881;DHT22;4979;51.014;6.678;2023-03-30T03:55:12;13.00;99.90
9881;DHT22;4979;51.014;6.678;2023-03-30T03:57:38;12.90;99.90
9881;DHT22;4979;51.014;6.678;2023-03-30T04:00:05;13.00;99.90
9881;DHT22;4979;51.014;6.678;2023-03-30T04:02:40;12.90;99.90
9881;DHT22;4979;51.014;6.678;2023-03-30T04:05:06;13.00;99.90
9881;DHT22;4979;51.014;6.678;2023-03-30T04:07:32;13.00;99.90
9881;DHT22;4979;51.014;6.678;2023-03-30T04:09:58;13.00;99.90
9881;DHT22;4979;51.014;6.678;2023-03-30T04:12:24;13.10;99.90
9881;DHT22;4979;51.014;6.678;2023-03-30T04:14:49;13.20;99.90
9881;DHT22;4979;51.014;6.678;2023-03-30T04:17:15;13.30;99.90
9881;DHT22;4979;51.014;6.678;2023-03-30T04:19:41;13.30;99.90
9881;DHT22;4979;51.014;6.678;2023-03-30T04:22:06;13.50;99.90
9881;DHT22;4979;51.014;6.678;2023-03-30T04:27:00;13.50;99.90
9881;DHT22;4979;51.014;6.678;2023-03-30T04:29:26;13.40;99.90
9881;DHT22;4979;51.014;6.678;2023-03-30T04:31:51;13.40;99.90
9881;DHT22;4979;51.014;6.678;2023-03-30T04:36:46;13.60;99.90
9881;DHT22;4979;51.014;6.678;2023-03-30T04:39:12;13.70;99.90
9881;DHT22;4979;51.014;6.678;2023-03-30T04:41:38;13.80;99.90
9881;DHT22;4979;51.014;6.678;2023-03-30T04:44:08;13.80;99.90
9881;DHT22;4979;51.014;6.678;2023-03-30T04:46:35;13.70;99.90
9881;DHT22;4979;51.014;6.678;2023-03-30T04:49:01;13.70;99.90
9881;DHT22;4979;51.014;6.678;2023-03-30T04:51:27;13.70;99.90
9881;DHT22;4979;51.014;6.678;2023-03-30T04:53:53;13.70;99.90
9881;DHT22;4979;51.014;6.678;2023-03-30T04:56:19;13.70;99.90
9881;DHT22;4979;51.014;6.678;2023-03-30T04:58:44;13.60;99.90
9881;DHT22;4979;51.014;6.678;2023-03-30T05:03:36;13.60;99.90
9881;DHT22;4979;51.014;6.678;2023-03-30T05:08:28;13.70;99.90
9881;DHT22;4979;51.014;6.678;2023-03-30T05:13:19;13.70;99.90
9881;DHT22;4979;51.014;6.678;2023-03-30T05:15:52;13.70;99.90
9881;DHT22;4979;51.014;6.678;2023-03-30T05:18:18;13.80;99.90
9881;DHT22;4979;51.014;6.678;2023-03-30T05:20:44;13.80;99.90
9881;DHT22;4979;51.014;6.678;2023-03-30T05:23:10;13.70;99.90
9881;DHT22;4979;51.014;6.678;2023-03-30T05:25:36;13.70;99.90
9881;DHT22;4979;51.014;6.678;2023-03-30T05:30:27;13.60;99.90
9881;DHT22;4979;51.014;6.678;2023-03-30T05:32:53;13.60;99.90
9881;DHT22;4979;51.014;6.678;2023-03-30T05:35:19;13.70;99.90
9881;DHT22;4979;51.014;6.678;2023-03-30T05:37:47;13.70;99.90
9881;DHT22;4979;51.014;6.678;2023-03-30T05:40:13;13.70;99.90
9881;DHT22;4979;51.014;6.678;2023-03-30T05:42:38;13.70;99.90
9881;DHT22;4979;51.014;6.678;2023-03-30T05:45:04;13.80;99.90
9881;DHT22;4979;51.014;6.678;2023-03-30T05:47:30;13.80;99.90
9881;DHT22;4979;51.014;6.678;2023-03-30T05:49:56;13.80;99.90
9881;DHT22;4979;51.014;6.678;2023-03-30T05:52:21;13.80;99.90
9881;DHT22;4979;51.014;6.678;2023-03-30T05:54:48;13.80;99.90
9881;DHT22;4979;51.014;6.678;2023-03-30T05:57:13;13.90;99.90
9881;DHT22;4979;51.014;6.678;2023-03-30T05:59:39;14.00;99.90
9881;DHT22;4979;51.014;6.678;2023-03-30T06:16:43;14.00;99.90
9881;DHT22;4979;51.014;6.678;2023-03-30T06:19:08;14.00;99.90
9881;DHT22;4979;51.014;6.678;2023-03-30T06:21:34;13.90;99.90
9881;DHT22;4979;51.014;6.678;2023-03-30T06:23:59;14.00;99.90
9881;DHT22;4979;51.014;6.678;2023-03-30T06:28:52;14.00;99.90
9881;DHT22;4979;51.014;6.678;2023-03-30T06:31:17;14.00;99.90
9881;DHT22;4979;51.014;6.678;2023-03-30T06:33:43;14.10;99.90
9881;DHT22;4979;51.014;6.678;2023-03-30T06:36:10;14.20;99.90
9881;DHT22;4979;51.014;6.678;2023-03-30T06:41:03;14.30;99.90
9881;DHT22;4979;51.014;6.678;2023-03-30T06:43:31;14.30;99.90
9881;DHT22;4979;51.014;6.678;2023-03-30T06:45:57;14.30;99.90
9881;DHT22;4979;51.014;6.678;2023-03-30T06:48:23;14.40;99.90
9881;DHT22;4979;51.014;6.678;2023-03-30T06:50:49;14.50;99.90
9881;DHT22;4979;51.014;6.678;2023-03-30T06:53:16;14.70;99.90
9881;DHT22;4979;51.014;6.678;2023-03-30T07:00:34;14.80;99.90
9881;DHT22;4979;51.014;6.678;2023-03-30T07:02:59;14.80;99.90
9881;DHT22;4979;51.014;6.678;2023-03-30T07:05:25;14.70;99.90
9881;DHT22;4979;51.014;6.678;2023-03-30T07:07:54;14.70;99.90
9881;DHT22;4979;51.014;6.678;2023-03-30T07:10:21;14.70;99.90
9881;DHT22;4979;51.014;6.678;2023-03-30T07:15:14;14.70;99.90
9881;DHT22;4979;51.014;6.678;2023-03-30T07:20:07;14.70;99.90
9881;DHT22;4979;51.014;6.678;2023-03-30T07:22:34;14.70;99.90
9881;DHT22;4979;51.014;6.678;2023-03-30T07:24:59;14.80;99.90
9881;DHT22;4979;51.014;6.678;2023-03-30T07:27:25;14.70;99.90
9881;DHT22;4979;51.014;6.678;2023-03-30T07:29:52;14.70;99.90
9881;DHT22;4979;51.014;6.678;2023-03-30T07:32:18;14.70;99.90
9881;DHT22;4979;51.014;6.678;2023-03-30T07:34:44;14.70;99.90
9881;DHT22;4979;51.014;6.678;2023-03-30T07:37:11;14.70;99.90
9881;DHT22;4979;51.014;6.678;2023-03-30T07:39:36;14.80;99.90
9881;DHT22;4979;51.014;6.678;2023-03-30T07:42:02;14.70;99.90
9881;DHT22;4979;51.014;6.678;2023-03-30T07:44:28;14.80;99.90
9881;DHT22;4979;51.014;6.678;2023-03-30T07:46:55;14.90;99.90
9881;DHT22;4979;51.014;6.678;2023-03-30T07:49:21;15.00;99.90
9881;DHT22;4979;51.014;6.678;2023-03-30T07:51:47;15.00;99.90
9881;DHT22;4979;51.014;6.678;2023-03-30T07:54:13;15.00;99.90
9881;DHT22;4979;51.014;6.678;2023-03-30T07:56:38;15.00;99.90
9881;DHT22;4979;51.014;6.678;2023-03-30T07:59:05;15.00;99.90
9881;DHT22;4979;51.014;6.678;2023-03-30T08:01:32;15.00;99.90
9881;DHT22;4979;51.014;6.678;2023-03-30T08:03:59;15.10;99.90
9881;DHT22;4979;51.014;6.678;2023-03-30T08:06:25;15.20;99.90
9881;DHT22;4979;51.014;6.678;2023-03-30T08:08:51;15.00;99.90
9881;DHT22;4979;51.014;6.678;2023-03-30T08:11:17;14.70;99.90
9881;DHT22;4979;51.014;6.678;2023-03-30T08:13:43;14.40;99.90
9881;DHT22;4979;51.014;6.678;2023-03-30T08:16:09;14.20;99.90
9881;DHT22;4979;51.014;6.678;2023-03-30T08:18:35;14.10;99.90
9881;DHT22;4979;51.014;6.678;2023-03-30T08:21:06;13.90;99.90
9881;DHT22;4979;51.014;6.678;2023-03-30T08:23:32;13.80;99.90
9881;DHT22;4979;51.014;6.678;2023-03-30T08:26:01;13.70;99.90
9881;DHT22;4979;51.014;6.678;2023-03-30T08:28:26;13.70;99.90
9881;DHT22;4979;51.014;6.678;2023-03-30T08:30:52;13.80;99.90
9881;DHT22;4979;51.014;6.678;2023-03-30T08:33:19;14.10;99.90
9881;DHT22;4979;51.014;6.678;2023-03-30T08:35:48;14.40;99.90
9881;DHT22;4979;51.014;6.678;2023-03-30T08:38:14;14.50;99.90
9881;DHT22;4979;51.014;6.678;2023-03-30T08:40:45;14.70;99.90
9881;DHT22;4979;51.014;6.678;2023-03-30T08:45:59;15.20;99.90
9881;DHT22;4979;51.014;6.678;2023-03-30T08:48:30;15.00;99.90
9881;DHT22;4979;51.014;6.678;2023-03-30T08:50:59;14.90;99.90
9881;DHT22;4979;51.014;6.678;2023-03-30T08:53:27;15.20;99.90
9881;DHT22;4979;51.014;6.678;2023-03-30T09:01:33;15.60;99.90
9881;DHT22;4979;51.014;6.678;2023-03-30T09:06:52;14.90;99.90
9881;DHT22;4979;51.014;6.678;2023-03-30T09:09:21;14.00;99.90
9881;DHT22;4979;51.014;6.678;2023-03-30T09:11:54;13.60;99.90
9881;DHT22;4979;51.014;6.678;2023-03-30T09:14:42;13.40;99.90
9881;DHT22;4979;51.014;6.678;2023-03-30T09:17:16;13.20;99.90
9881;DHT22;4979;51.014;6.678;2023-03-30T09:19:54;13.20;99.90
9881;DHT22;4979;51.014;6.678;2023-03-30T09:22:25;13.00;99.90
9881;DHT22;4979;51.014;6.678;2023-03-30T09:24:53;12.80;99.90
9881;DHT22;4979;51.014;6.678;2023-03-30T09:27:40;12.80;99.90
9881;DHT22;4979;51.014;6.678;2023-03-30T09:30:21;12.40;99.90
9881;DHT22;4979;51.014;6.678;2023-03-30T09:32:57;12.20;99.90
9881;DHT22;4979;51.014;6.678;2023-03-30T09:35:32;11.90;99.90
9881;DHT22;4979;51.014;6.678;2023-03-30T09:45:43;11.60;99.90
9881;DHT22;4979;51.014;6.678;2023-03-30T09:48:09;11.60;99.90
9881;DHT22;4979;51.014;6.678;2023-03-30T09:50:40;11.50;99.90
9881;DHT22;4979;51.014;6.678;2023-03-30T09:53:24;11.50;99.90
9881;DHT22;4979;51.014;6.678;2023-03-30T09:56:02;11.50;99.90
9881;DHT22;4979;51.014;6.678;2023-03-30T09:58:33;11.60;99.90
9881;DHT22;4979;51.014;6.678;2023-03-30T10:01:17;11.60;99.90
9881;DHT22;4979;51.014;6.678;2023-03-30T10:03:45;11.70;99.90
9881;DHT22;4979;51.014;6.678;2023-03-30T10:06:24;11.70;99.90
9881;DHT22;4979;51.014;6.678;2023-03-30T10:08:54;11.80;99.90
9881;DHT22;4979;51.014;6.678;2023-03-30T10:11:42;11.90;99.90
9881;DHT22;4979;51.014;6.678;2023-03-30T10:14:31;12.10;99.90
9881;DHT22;4979;51.014;6.678;2023-03-30T10:16:58;12.20;99.90
9881;DHT22;4979;51.014;6.678;2023-03-30T10:19:25;12.30;99.90
9881;DHT22;4979;51.014;6.678;2023-03-30T10:21:56;12.40;99.90
9881;DHT22;4979;51.014;6.678;2023-03-30T10:24:25;12.50;99.90
9881;DHT22;4979;51.014;6.678;2023-03-30T10:26:55;12.70;99.90
9881;DHT22;4979;51.014;6.678;2023-03-30T10:29:24;12.90;99.90
9881;DHT22;4979;51.014;6.678;2023-03-30T10:31:59;13.10;99.90
9881;DHT22;4979;51.014;6.678;2023-03-30T10:34:35;13.20;99.90
9881;DHT22;4979;51.014;6.678;2023-03-30T10:39:52;13.40;99.90
9881;DHT22;4979;51.014;6.678;2023-03-30T10:42:22;13.50;99.90
9881;DHT22;4979;51.014;6.678;2023-03-30T10:44:59;13.60;99.90
9881;DHT22;4979;51.014;6.678;2023-03-30T10:50:23;13.90;99.90
9881;DHT22;4979;51.014;6.678;2023-03-30T10:53:15;14.00;99.90
9881;DHT22;4979;51.014;6.678;2023-03-30T11:04:33;14.70;99.90
9881;DHT22;4979;51.014;6.678;2023-03-30T11:07:01;14.60;99.90
9881;DHT22;4979;51.014;6.678;2023-03-30T11:09:33;14.40;99.90
9881;DHT22;4979;51.014;6.678;2023-03-30T11:12:05;14.30;99.90
9881;DHT22;4979;51.014;6.678;2023-03-30T11:14:48;14.20;99.90
9881;DHT22;4979;51.014;6.678;2023-03-30T11:17:34;14.30;99.90
9881;DHT22;4979;51.014;6.678;2023-03-30T11:20:18;14.50;99.90
9881;DHT22;4979;51.014;6.678;2023-03-30T11:22:53;14.50;99.90
9881;DHT22;4979;51.014;6.678;2023-03-30T11:25:28;14.30;99.90
9881;DHT22;4979;51.014;6.678;2023-03-30T11:28:17;14.50;99.90
9881;DHT22;4979;51.014;6.678;2023-03-30T11:30:45;14.80;99.90
9881;DHT22;4979;51.014;6.678;2023-03-30T11:33:25;14.90;99.90
9881;DHT22;4979;51.014;6.678;2023-03-30T11:35:59;15.10;99.90
9881;DHT22;4979;51.014;6.678;2023-03-30T11:38:54;15.40;99.90
9881;DHT22;4979;51.014;6.678;2023-03-30T11:41:36;15.10;99.90
9881;DHT22;4979;51.014;6.678;2023-03-30T11:44:02;15.10;99.90
9881;DHT22;4979;51.014;6.678;2023-03-30T11:46:37;14.90;99.90
9881;DHT22;4979;51.014;6.678;2023-03-30T11:49:26;14.70;99.90
9881;DHT22;4979;51.014;6.678;2023-03-30T11:52:07;15.00;99.90
9881;DHT22;4979;51.014;6.678;2023-03-30T11:57:42;15.30;99.90
9881;DHT22;4979;51.014;6.678;2023-03-30T12:00:42;15.30;99.90
9881;DHT22;4979;51.014;6.678;2023-03-30T12:06:02;15.10;99.90
9881;DHT22;4979;51.014;6.678;2023-03-30T12:13:57;14.40;99.90
9881;DHT22;4979;51.014;6.678;2023-03-30T12:16:41;14.20;99.90
9881;DHT22;4979;51.014;6.678;2023-03-30T12:19:16;14.10;99.90
9881;DHT22;4979;51.014;6.678;2023-03-30T12:21:51;14.00;99.90
9881;DHT22;4979;51.014;6.678;2023-03-30T12:24:26;13.90;99.90
9881;DHT22;4979;51.014;6.678;2023-03-30T12:29:19;13.80;99.90
9881;DHT22;4979;51.014;6.678;2023-03-30T12:34:35;13.80;99.90
9881;DHT22;4979;51.014;6.678;2023-03-30T12:37:05;13.80;99.90
9881;DHT22;4979;51.014;6.678;2023-03-30T12:42:25;13.80;99.90
9881;DHT22;4979;51.014;6.678;2023-03-30T13:08:54;13.60;99.90
9881;DHT22;4979;51.014;6.678;2023-03-30T13:11:21;13.40;99.90
9881;DHT22;4979;51.014;6.678;2023-03-30T13:13:57;13.50;99.90
9881;DHT22;4979;51.014;6.678;2023-03-30T13:21:57;13.50;99.90
9881;DHT22;4979;51.014;6.678;2023-03-30T13:27:21;13.40;99.90
9881;DHT22;4979;51.014;6.678;2023-03-30T13:30:00;13.40;99.90
9881;DHT22;4979;51.014;6.678;2023-03-30T13:40:27;13.70;99.90
9881;DHT22;4979;51.014;6.678;2023-03-30T13:45:58;14.10;99.90
9881;DHT22;4979;51.014;6.678;2023-03-30T13:51:26;14.50;99.90
9881;DHT22;4979;51.014;6.678;2023-03-30T13:54:00;14.60;99.90
9881;DHT22;4979;51.014;6.678;2023-03-30T13:56:33;12.90;99.90
9881;DHT22;4979;51.014;6.678;2023-03-30T13:59:05;14.60;99.90
9881;DHT22;4979;51.014;6.678;2023-03-30T14:01:32;14.70;99.90
9881;DHT22;4979;51.014;6.678;2023-03-30T14:03:59;14.70;99.90
9881;DHT22;4979;51.014;6.678;2023-03-30T14:06:29;14.80;99.90
9881;DHT22;4979;51.014;6.678;2023-03-30T14:11:49;15.10;99.90
9881;DHT22;4979;51.014;6.678;2023-03-30T14:14:38;15.10;99.90
9881;DHT22;4979;51.014;6.678;2023-03-30T14:17:16;15.00;99.90
9881;DHT22;4979;51.014;6.678;2023-03-30T14:22:38;15.80;99.90
9881;DHT22;4979;51.014;6.678;2023-03-30T14:25:23;16.00;99.90
9881;DHT22;4979;51.014;6.678;2023-03-30T14:27:49;16.10;99.90
9881;DHT22;4979;51.014;6.678;2023-03-30T14:30:27;16.30;99.90
9881;DHT22;4979;51.014;6.678;2023-03-30T14:33:14;16.00;99.90
9881;DHT22;4979;51.014;6.678;2023-03-30T14:35:47;15.70;99.90
9881;DHT22;4979;51.014;6.678;2023-03-30T14:38:20;15.50;99.90
9881;DHT22;4979;51.014;6.678;2023-03-30T14:40:47;15.90;99.90
9881;DHT22;4979;51.014;6.678;2023-03-30T14:43:18;15.80;99.90
9881;DHT22;4979;51.014;6.678;2023-03-30T14:45:45;15.90;99.90
9881;DHT22;4979;51.014;6.678;2023-03-30T14:48:29;16.00;99.90
9881;DHT22;4979;51.014;6.678;2023-03-30T14:50:55;16.00;99.90
9881;DHT22;4979;51.014;6.678;2023-03-30T14:53:24;16.20;99.90
9881;DHT22;4979;51.014;6.678;2023-03-30T14:55:50;16.30;99.90
9881;DHT22;4979;51.014;6.678;2023-03-30T14:58:22;16.30;99.90
9881;DHT22;4979;51.014;6.678;2023-03-30T15:00:52;16.20;99.90
9881;DHT22;4979;51.014;6.678;2023-03-30T15:03:21;16.20;99.90
9881;DHT22;4979;51.014;6.678;2023-03-30T15:08:25;16.30;99.90
9881;DHT22;4979;51.014;6.678;2023-03-30T15:10:52;16.40;99.90
9881;DHT22;4979;51.014;6.678;2023-03-30T15:13:34;16.00;99.90
9881;DHT22;4979;51.014;6.678;2023-03-30T15:16:03;16.00;99.90
9881;DHT22;4979;51.014;6.678;2023-03-30T15:18:31;15.80;99.90
9881;DHT22;4979;51.014;6.678;2023-03-30T15:23:28;15.80;99.90
9881;DHT22;4979;51.014;6.678;2023-03-30T15:25:58;15.70;99.90
9881;DHT22;4979;51.014;6.678;2023-03-30T15:28:24;15.70;99.90
9881;DHT22;4979;51.014;6.678;2023-03-30T15:30:52;15.70;99.90
9881;DHT22;4979;51.014;6.678;2023-03-30T15:35:54;15.60;99.90
9881;DHT22;4979;51.014;6.678;2023-03-30T15:38:34;15.50;99.90
9881;DHT22;4979;51.014;6.678;2023-03-30T15:41:12;15.50;99.90
9881;DHT22;4979;51.014;6.678;2023-03-30T15:43:55;15.40;99.90
9881;DHT22;4979;51.014;6.678;2023-03-30T15:46:21;15.40;99.90
9881;DHT22;4979;51.014;6.678;2023-03-30T15:48:49;15.30;99.90
9881;DHT22;4979;51.014;6.678;2023-03-30T15:51:25;15.30;99.90
9881;DHT22;4979;51.014;6.678;2023-03-30T15:54:08;15.20;99.90
9881;DHT22;4979;51.014;6.678;2023-03-30T15:56:40;15.30;99.90
9881;DHT22;4979;51.014;6.678;2023-03-30T15:59:19;15.50;99.90
9881;DHT22;4979;51.014;6.678;2023-03-30T16:01:59;15.60;99.90
9881;DHT22;4979;51.014;6.678;2023-03-30T16:04:30;15.70;99.90
9881;DHT22;4979;51.014;6.678;2023-03-30T16:09:22;15.60;99.90
9881;DHT22;4979;51.014;6.678;2023-03-30T16:11:48;15.60;99.90
9881;DHT22;4979;51.014;6.678;2023-03-30T16:14:17;15.70;99.90
9881;DHT22;4979;51.014;6.678;2023-03-30T16:16:45;15.70;99.90
9881;DHT22;4979;51.014;6.678;2023-03-30T16:19:13;15.60;99.90
9881;DHT22;4979;51.014;6.678;2023-03-30T16:21:40;15.50;99.90
9881;DHT22;4979;51.014;6.678;2023-03-30T16:26:32;15.40;99.90
9881;DHT22;4979;51.014;6.678;2023-03-30T16:28:58;15.40;99.90
9881;DHT22;4979;51.014;6.678;2023-03-30T16:31:23;15.30;99.90
9881;DHT22;4979;51.014;6.678;2023-03-30T16:33:50;15.30;99.90
9881;DHT22;4979;51.014;6.678;2023-03-30T16:36:20;15.10;99.90
9881;DHT22;4979;51.014;6.678;2023-03-30T16:38:46;15.00;99.90
9881;DHT22;4979;51.014;6.678;2023-03-30T16:41:19;14.80;99.90
9881;DHT22;4979;51.014;6.678;2023-03-30T16:43:45;14.70;99.90
9881;DHT22;4979;51.014;6.678;2023-03-30T16:46:15;14.60;99.90
9881;DHT22;4979;51.014;6.678;2023-03-30T16:48:41;14.60;99.90
9881;DHT22;4979;51.014;6.678;2023-03-30T16:51:09;14.50;99.90
9881;DHT22;4979;51.014;6.678;2023-03-30T16:56:02;14.40;99.90
9881;DHT22;4979;51.014;6.678;2023-03-30T16:58:27;14.40;99.90
9881;DHT22;4979;51.014;6.678;2023-03-30T17:00:53;14.40;99.90
9881;DHT22;4979;51.014;6.678;2023-03-30T17:05:53;14.50;99.90
9881;DHT22;4979;51.014;6.678;2023-03-30T17:08:21;14.80;99.90
9881;DHT22;4979;51.014;6.678;2023-03-30T17:13:13;15.00;99.90
9881;DHT22;4979;51.014;6.678;2023-03-30T17:15:39;15.00;99.90
9881;DHT22;4979;51.014;6.678;2023-03-30T17:18:08;15.10;99.90
9881;DHT22;4979;51.014;6.678;2023-03-30T17:20:47;15.00;99.90
9881;DHT22;4979;51.014;6.678;2023-03-30T17:23:17;15.00;99.90
9881;DHT22;4979;51.014;6.678;2023-03-30T17:25:43;14.60;99.90
9881;DHT22;4979;51.014;6.678;2023-03-30T17:28:15;14.40;99.90
9881;DHT22;4979;51.014;6.678;2023-03-30T17:30:43;14.30;99.90
9881;DHT22;4979;51.014;6.678;2023-03-30T17:35:37;14.10;99.90
9881;DHT22;4979;51.014;6.678;2023-03-30T17:38:05;14.10;99.90
9881;DHT22;4979;51.014;6.678;2023-03-30T17:40:33;14.00;99.90
9881;DHT22;4979;51.014;6.678;2023-03-30T17:43:03;14.00;99.90
9881;DHT22;4979;51.014;6.678;2023-03-30T17:47:55;13.80;99.90
9881;DHT22;4979;51.014;6.678;2023-03-30T17:50:27;13.90;99.90
9881;DHT22;4979;51.014;6.678;2023-03-30T17:52:54;13.80;99.90
9881;DHT22;4979;51.014;6.678;2023-03-30T17:55:22;13.90;99.90
9881;DHT22;4979;51.014;6.678;2023-03-30T17:57:48;13.80;99.90
9881;DHT22;4979;51.014;6.678;2023-03-30T18:00:20;13.80;99.90
9881;DHT22;4979;51.014;6.678;2023-03-30T18:05:13;13.80;99.90
9881;DHT22;4979;51.014;6.678;2023-03-30T18:07:39;13.80;99.90
9881;DHT22;4979;51.014;6.678;2023-03-30T18:10:22;13.80;99.90
9881;DHT22;4979;51.014;6.678;2023-03-30T18:12:48;13.80;99.90
9881;DHT22;4979;51.014;6.678;2023-03-30T18:15:15;13.70;99.90
9881;DHT22;4979;51.014;6.678;2023-03-30T18:17:41;13.70;99.90
9881;DHT22;4979;51.014;6.678;2023-03-30T18:20:15;13.60;99.90
9881;DHT22;4979;51.014;6.678;2023-03-30T18:22:42;13.60;99.90
9881;DHT22;4979;51.014;6.678;2023-03-30T18:25:07;13.50;99.90
9881;DHT22;4979;51.014;6.678;2023-03-30T18:32:25;13.40;99.90
9881;DHT22;4979;51.014;6.678;2023-03-30T18:34:51;13.30;99.90
9881;DHT22;4979;51.014;6.678;2023-03-30T18:37:16;13.30;99.90
9881;DHT22;4979;51.014;6.678;2023-03-30T18:39:43;13.20;99.90
9881;DHT22;4979;51.014;6.678;2023-03-30T18:42:09;13.20;99.90
9881;DHT22;4979;51.014;6.678;2023-03-30T18:44:35;13.20;99.90
9881;DHT22;4979;51.014;6.678;2023-03-30T18:49:27;13.10;99.90
9881;DHT22;4979;51.014;6.678;2023-03-30T18:51:52;13.10;99.90
9881;DHT22;4979;51.014;6.678;2023-03-30T18:54:18;13.10;99.90
9881;DHT22;4979;51.014;6.678;2023-03-30T18:56:44;13.10;99.90
9881;DHT22;4979;51.014;6.678;2023-03-30T19:01:36;13.10;99.90
9881;DHT22;4979;51.014;6.678;2023-03-30T19:04:03;13.00;99.90
9881;DHT22;4979;51.014;6.678;2023-03-30T19:06:28;13.00;99.90
9881;DHT22;4979;51.014;6.678;2023-03-30T19:08:55;12.90;99.90
9881;DHT22;4979;51.014;6.678;2023-03-30T19:11:22;13.00;99.90
9881;DHT22;4979;51.014;6.678;2023-03-30T19:13:48;12.90;99.90
9881;DHT22;4979;51.014;6.678;2023-03-30T19:18:44;12.90;99.90
9881;DHT22;4979;51.014;6.678;2023-03-30T19:21:15;12.90;99.90
9881;DHT22;4979;51.014;6.678;2023-03-30T19:23:41;12.80;99.90
9881;DHT22;4979;51.014;6.678;2023-03-30T19:28:33;12.80;99.90
9881;DHT22;4979;51.014;6.678;2023-03-30T19:31:04;12.80;99.90
9881;DHT22;4979;51.014;6.678;2023-03-30T19:33:29;12.80;99.90
9881;DHT22;4979;51.014;6.678;2023-03-30T19:35:55;12.70;99.90
9881;DHT22;4979;51.014;6.678;2023-03-30T19:38:20;12.80;99.90
9881;DHT22;4979;51.014;6.678;2023-03-30T19:43:12;12.80;99.90
9881;DHT22;4979;51.014;6.678;2023-03-30T19:45:38;12.70;99.90
9881;DHT22;4979;51.014;6.678;2023-03-30T19:48:04;12.70;99.90
9881;DHT22;4979;51.014;6.678;2023-03-30T19:50:31;12.70;99.90
9881;DHT22;4979;51.014;6.678;2023-03-30T19:52:56;12.60;99.90
9881;DHT22;4979;51.014;6.678;2023-03-30T19:55:22;12.60;99.90
9881;DHT22;4979;51.014;6.678;2023-03-30T20:00:15;12.60;99.90
9881;DHT22;4979;51.014;6.678;2023-03-30T20:02:44;12.60;99.90
9881;DHT22;4979;51.014;6.678;2023-03-30T20:07:38;12.50;99.90
9881;DHT22;4979;51.014;6.678;2023-03-30T20:10:05;12.50;99.90
9881;DHT22;4979;51.014;6.678;2023-03-30T20:12:30;12.50;99.90
9881;DHT22;4979;51.014;6.678;2023-03-30T20:17:24;12.30;99.90
9881;DHT22;4979;51.014;6.678;2023-03-30T20:19:49;12.20;99.90
9881;DHT22;4979;51.014;6.678;2023-03-30T20:22:15;12.20;99.90